Time;durP1;ratioP1;P1;durP2;ratioP2;P2;SDS_P1;SDS_P2;PMS_P1;PMS_P2;Temp;Humidity;BMP_temperature;BMP_pressure;BME280_temperature;BME280_humidity;BME280_pressure;Samples;Min_cycle;Max_cycle;Signal;HPM_P1;HPM_P2
2024/03/28 00:00:37;;;;;;;2.25;1.90;;;;;;;;;;4966342;28;25105;-74
2024/03/28 00:03:03;;;;;;;2.25;1.77;;;;;;;;;;4964189;28;25060;-74
2024/03/28 00:05:29;;;;;;;5.32;2.15;;;;;;;;;;4963651;28;25113;-74
2024/03/28 00:07:55;;;;;;;1.73;1.63;;;;;;;;;;4967100;28;25106;-75
2024/03/28 00:10:21;;;;;;;3.53;2.30;;;;;;;;;;4963798;28;25065;-74
2024/03/28 00:12:47;;;;;;;1.77;1.40;;;;;;;;;;4966618;28;25060;-74
2024/03/28 00:15:13;;;;;;;2.30;2.03;;;;;;;;;;4983231;28;25056;-74
2024/03/28 00:17:40;;;;;;;2.80;1.88;;;;;;;;;;4970381;28;25132;-74
2024/03/28 00:20:06;;;;;;;3.08;1.75;;;;;;;;;;4972770;28;25053;-75
2024/03/28 00:22:32;;;;;;;1.90;1.70;;;;;;;;;;4969239;28;25060;-74
2024/03/28 00:24:58;;;;;;;2.75;1.80;;;;;;;;;;4966296;28;25043;-74
2024/03/28 00:27:24;;;;;;;3.60;2.20;;;;;;;;;;4969225;28;25084;-75
2024/03/28 00:29:50;;;;;;;2.75;1.70;;;;;;;;;;4964900;28;25064;-75
2024/03/28 00:32:18;;;;;;;2.60;1.80;;;;;;;;;;4966331;28;25150;-75
2024/03/28 00:34:44;;;;;;;2.42;1.90;;;;;;;;;;4967572;28;25070;-75
2024/03/28 00:37:10;;;;;;;2.05;1.85;;;;;;;;;;4968144;28;25162;-75
2024/03/28 00:39:35;;;;;;;5.28;1.80;;;;;;;;;;4972351;28;25060;-74
2024/03/28 00:42:02;;;;;;;2.92;1.88;;;;;;;;;;4964274;28;25074;-75
2024/03/28 00:44:28;;;;;;;2.28;1.80;;;;;;;;;;4965672;28;25064;-74
2024/03/28 00:46:54;;;;;;;3.30;2.20;;;;;;;;;;4967136;28;25063;-75
2024/03/28 00:49:20;;;;;;;5.10;2.15;;;;;;;;;;4960982;28;25061;-75
2024/03/28 00:51:47;;;;;;;3.15;1.90;;;;;;;;;;4966798;28;25111;-76
2024/03/28 00:54:13;;;;;;;3.22;2.00;;;;;;;;;;4965492;28;25150;-74
2024/03/28 00:56:40;;;;;;;3.58;2.92;;;;;;;;;;4968959;28;25067;-75
2024/03/28 00:59:06;;;;;;;2.45;2.13;;;;;;;;;;4960433;28;25076;-75
2024/03/28 01:01:31;;;;;;;5.68;3.15;;;;;;;;;;4965309;28;25089;-75
2024/03/28 01:03:57;;;;;;;3.38;3.00;;;;;;;;;;4964594;28;25055;-73
2024/03/28 01:06:23;;;;;;;5.18;2.70;;;;;;;;;;4957493;28;25120;-75
2024/03/28 01:08:49;;;;;;;4.47;2.72;;;;;;;;;;4956503;28;26198;-74
2024/03/28 01:11:15;;;;;;;6.40;2.38;;;;;;;;;;4960415;28;25106;-75
2024/03/28 01:13:43;;;;;;;4.60;2.58;;;;;;;;;;4964744;28;25062;-74
2024/03/28 01:16:09;;;;;;;4.90;2.60;;;;;;;;;;4959272;28;25100;-76
2024/03/28 01:18:35;;;;;;;3.25;2.47;;;;;;;;;;4955039;28;25080;-75
2024/03/28 01:21:04;;;;;;;5.03;2.63;;;;;;;;;;4965258;28;25057;-75
2024/03/28 01:23:30;;;;;;;2.60;2.40;;;;;;;;;;4956664;28;25078;-75
2024/03/28 01:25:57;;;;;;;2.72;2.20;;;;;;;;;;4967859;28;25048;-74
2024/03/28 01:28:22;;;;;;;2.58;2.30;;;;;;;;;;4957715;28;25122;-74
2024/03/28 01:30:48;;;;;;;6.63;2.30;;;;;;;;;;4962551;28;25086;-75
2024/03/28 01:33:14;;;;;;;4.88;2.35;;;;;;;;;;4961938;28;25063;-74
2024/03/28 01:35:41;;;;;;;2.42;2.22;;;;;;;;;;4968009;28;25070;-74
2024/03/28 01:38:06;;;;;;;3.70;2.20;;;;;;;;;;4967602;28;25099;-74
2024/03/28 01:40:33;;;;;;;3.05;2.30;;;;;;;;;;4961760;28;25111;-74
2024/03/28 01:43:08;;;;;;;3.20;2.25;;;;;;;;;;4962870;28;25066;-76
2024/03/28 01:45:34;;;;;;;3.30;2.10;;;;;;;;;;4958359;28;25081;-76
2024/03/28 01:48:00;;;;;;;2.40;1.88;;;;;;;;;;4964750;28;25073;-74
2024/03/28 01:50:27;;;;;;;6.00;2.40;;;;;;;;;;4968223;28;25143;-76
2024/03/28 01:52:53;;;;;;;2.38;1.92;;;;;;;;;;4971297;28;25067;-74
2024/03/28 01:55:19;;;;;;;3.60;2.83;;;;;;;;;;4974124;28;25056;-75
2024/03/28 01:57:47;;;;;;;4.88;2.30;;;;;;;;;;4982971;28;25070;-75
2024/03/28 02:00:13;;;;;;;2.72;2.13;;;;;;;;;;4983594;28;25113;-76
2024/03/28 02:02:41;;;;;;;4.00;1.90;;;;;;;;;;4979724;28;25052;-74
2024/03/28 02:05:07;;;;;;;2.83;1.83;;;;;;;;;;4977940;28;25063;-74
2024/03/28 02:07:33;;;;;;;3.67;2.20;;;;;;;;;;4977771;28;25083;-75
2024/03/28 02:09:59;;;;;;;2.50;2.20;;;;;;;;;;4972474;28;25054;-74
2024/03/28 02:12:25;;;;;;;4.30;2.17;;;;;;;;;;4976247;28;25051;-74
2024/03/28 02:14:51;;;;;;;1.75;1.65;;;;;;;;;;4975649;28;25058;-75
2024/03/28 02:17:17;;;;;;;2.40;2.20;;;;;;;;;;4968891;28;25061;-74
2024/03/28 02:19:43;;;;;;;3.65;2.00;;;;;;;;;;4963090;28;25061;-74
2024/03/28 02:22:09;;;;;;;2.38;2.03;;;;;;;;;;4974830;28;25127;-76
2024/03/28 02:24:36;;;;;;;2.08;1.88;;;;;;;;;;4962145;28;25074;-74
2024/03/28 02:27:02;;;;;;;3.65;2.13;;;;;;;;;;4967419;28;25194;-75
2024/03/28 02:29:28;;;;;;;3.78;1.80;;;;;;;;;;4966222;28;25076;-76
2024/03/28 02:31:54;;;;;;;1.92;1.83;;;;;;;;;;4971142;28;25080;-75
2024/03/28 02:34:20;;;;;;;2.10;1.90;;;;;;;;;;4972064;28;25081;-74
2024/03/28 02:36:46;;;;;;;3.70;2.17;;;;;;;;;;4973213;28;25064;-77
2024/03/28 02:39:12;;;;;;;2.65;1.85;;;;;;;;;;4968582;28;25149;-75
2024/03/28 02:41:38;;;;;;;3.83;2.00;;;;;;;;;;4972070;28;25100;-76
2024/03/28 02:44:04;;;;;;;2.20;2.10;;;;;;;;;;4973704;28;25113;-74
2024/03/28 02:46:30;;;;;;;2.10;1.90;;;;;;;;;;4970807;28;25154;-76
2024/03/28 02:48:56;;;;;;;3.00;1.90;;;;;;;;;;4967748;28;25086;-74
2024/03/28 02:51:22;;;;;;;3.53;1.73;;;;;;;;;;4968781;28;25131;-75
2024/03/28 02:53:48;;;;;;;3.03;2.08;;;;;;;;;;4964322;28;25043;-74
2024/03/28 02:56:14;;;;;;;3.75;2.13;;;;;;;;;;4967436;28;25065;-76
2024/03/28 02:58:40;;;;;;;2.15;1.95;;;;;;;;;;4966063;28;25150;-75
2024/03/28 03:01:06;;;;;;;2.30;2.10;;;;;;;;;;4966856;28;25102;-74
2024/03/28 03:03:32;;;;;;;2.40;2.20;;;;;;;;;;4969806;28;25128;-74
2024/03/28 03:05:58;;;;;;;3.13;2.17;;;;;;;;;;4969830;28;25073;-75
2024/03/28 03:08:24;;;;;;;4.68;2.28;;;;;;;;;;4961145;28;25085;-74
2024/03/28 03:10:50;;;;;;;2.28;2.08;;;;;;;;;;4958895;28;25107;-75
2024/03/28 03:13:16;;;;;;;2.67;2.40;;;;;;;;;;4959760;28;25148;-75
2024/03/28 03:15:50;;;;;;;3.42;2.58;;;;;;;;;;4969098;28;25138;-74
2024/03/28 03:18:19;;;;;;;6.20;2.50;;;;;;;;;;4963469;28;25069;-75
2024/03/28 03:20:49;;;;;;;3.90;2.88;;;;;;;;;;4963750;28;25085;-74
2024/03/28 03:23:15;;;;;;;3.53;2.58;;;;;;;;;;4962525;28;24998;-75
2024/03/28 03:25:59;;;;;;;6.30;3.38;;;;;;;;;;4968515;28;25140;-75
2024/03/28 03:36:39;;;;;;;4.78;2.80;;;;;;;;;;4961006;28;25060;-75
2024/03/28 03:39:05;;;;;;;2.80;2.60;;;;;;;;;;4965001;28;25071;-75
2024/03/28 03:41:31;;;;;;;3.22;3.03;;;;;;;;;;4971726;28;25084;-74
2024/03/28 03:43:57;;;;;;;4.53;3.13;;;;;;;;;;4985217;28;25077;-74
2024/03/28 03:46:23;;;;;;;3.97;2.90;;;;;;;;;;4971114;28;25060;-75
2024/03/28 03:48:49;;;;;;;3.22;2.92;;;;;;;;;;4954480;28;25078;-74
2024/03/28 03:51:17;;;;;;;4.05;2.90;;;;;;;;;;4970163;28;25055;-75
2024/03/28 03:53:43;;;;;;;3.00;2.78;;;;;;;;;;4969039;28;25169;-75
2024/03/28 03:56:09;;;;;;;3.08;2.88;;;;;;;;;;4967551;28;25109;-74
2024/03/28 03:58:35;;;;;;;5.20;2.85;;;;;;;;;;4967701;28;25098;-74
2024/03/28 04:01:01;;;;;;;3.05;2.85;;;;;;;;;;4964376;28;25045;-74
2024/03/28 04:03:27;;;;;;;2.88;2.50;;;;;;;;;;4964689;28;25084;-75
2024/03/28 04:05:53;;;;;;;2.80;2.53;;;;;;;;;;4968874;28;25161;-76
2024/03/28 04:08:20;;;;;;;3.40;3.10;;;;;;;;;;4967297;28;25068;-75
2024/03/28 04:10:46;;;;;;;4.10;3.40;;;;;;;;;;4974432;28;25062;-74
2024/03/28 04:13:12;;;;;;;2.95;2.75;;;;;;;;;;4978085;28;25058;-75
2024/03/28 04:15:38;;;;;;;5.80;3.28;;;;;;;;;;4973716;28;25086;-75
2024/03/28 04:18:05;;;;;;;3.35;3.10;;;;;;;;;;4970229;28;25127;-75
2024/03/28 04:20:31;;;;;;;4.93;2.88;;;;;;;;;;4973940;28;25100;-76
2024/03/28 04:22:57;;;;;;;3.10;2.75;;;;;;;;;;4971616;28;25121;-74
2024/03/28 04:25:24;;;;;;;3.75;2.90;;;;;;;;;;4973066;28;25098;-74
2024/03/28 04:27:50;;;;;;;3.85;2.45;;;;;;;;;;4970907;28;25101;-75
2024/03/28 04:30:16;;;;;;;3.88;3.20;;;;;;;;;;4973157;28;25070;-75
2024/03/28 04:32:42;;;;;;;4.35;2.80;;;;;;;;;;4966560;28;25048;-75
2024/03/28 04:35:09;;;;;;;2.92;2.63;;;;;;;;;;4971697;28;25088;-74
2024/03/28 04:37:35;;;;;;;3.88;2.70;;;;;;;;;;4965724;28;25099;-75
2024/03/28 04:40:02;;;;;;;2.75;2.50;;;;;;;;;;4971322;28;25077;-75
2024/03/28 04:42:28;;;;;;;5.78;2.95;;;;;;;;;;4966570;28;25079;-75
2024/03/28 04:44:55;;;;;;;6.47;2.90;;;;;;;;;;4972161;28;25048;-76
2024/03/28 04:47:22;;;;;;;3.45;2.78;;;;;;;;;;4964224;28;25073;-74
2024/03/28 04:49:48;;;;;;;5.18;2.72;;;;;;;;;;4973078;28;25093;-74
2024/03/28 04:52:14;;;;;;;3.38;2.45;;;;;;;;;;4975431;28;25067;-75
2024/03/28 04:54:40;;;;;;;3.75;2.92;;;;;;;;;;4972158;28;25056;-73
2024/03/28 04:57:06;;;;;;;5.57;2.75;;;;;;;;;;4974127;28;25090;-76
2024/03/28 04:59:32;;;;;;;3.92;3.28;;;;;;;;;;4973474;28;25113;-74
2024/03/28 05:01:58;;;;;;;4.43;2.88;;;;;;;;;;4970257;28;25063;-75
2024/03/28 05:04:24;;;;;;;5.05;2.85;;;;;;;;;;4973109;28;25058;-75
2024/03/28 05:06:49;;;;;;;3.60;2.90;;;;;;;;;;4976783;28;25040;-74
2024/03/28 05:09:15;;;;;;;3.60;2.72;;;;;;;;;;4974691;28;25048;-74
2024/03/28 05:11:41;;;;;;;2.97;2.78;;;;;;;;;;4981305;28;25087;-76
2024/03/28 05:14:07;;;;;;;3.30;2.33;;;;;;;;;;4986195;28;25100;-75
2024/03/28 05:16:33;;;;;;;3.25;2.80;;;;;;;;;;4985588;28;25163;-75
2024/03/28 05:18:59;;;;;;;2.67;2.50;;;;;;;;;;4977167;28;25119;-75
2024/03/28 05:21:26;;;;;;;3.28;2.97;;;;;;;;;;4974720;28;25081;-75
2024/03/28 05:23:52;;;;;;;4.20;2.80;;;;;;;;;;4964575;28;25056;-76
2024/03/28 05:26:18;;;;;;;2.80;2.58;;;;;;;;;;4972555;28;25112;-76
2024/03/28 05:28:44;;;;;;;3.58;2.47;;;;;;;;;;4973787;28;25058;-79
2024/03/28 05:31:14;;;;;;;5.00;2.75;;;;;;;;;;4983349;28;25092;-77
2024/03/28 05:33:40;;;;;;;2.42;2.22;;;;;;;;;;4975861;28;25082;-76
2024/03/28 05:36:06;;;;;;;3.55;2.67;;;;;;;;;;4965770;28;25133;-76
2024/03/28 05:38:34;;;;;;;2.85;2.40;;;;;;;;;;4967809;28;25060;-77
2024/03/28 05:41:00;;;;;;;3.08;2.20;;;;;;;;;;4964204;28;25056;-75
2024/03/28 05:43:27;;;;;;;2.72;2.53;;;;;;;;;;4969347;28;25080;-75
2024/03/28 05:45:53;;;;;;;2.90;2.58;;;;;;;;;;4968749;28;25161;-77
2024/03/28 05:48:19;;;;;;;3.13;2.60;;;;;;;;;;4987891;28;25094;-77
2024/03/28 05:50:45;;;;;;;4.57;2.38;;;;;;;;;;4976152;28;25068;-75
2024/03/28 05:53:12;;;;;;;3.60;2.58;;;;;;;;;;4974552;28;25063;-77
2024/03/28 05:55:38;;;;;;;4.15;2.47;;;;;;;;;;4964153;28;25055;-76
2024/03/28 05:58:04;;;;;;;3.58;2.50;;;;;;;;;;4966570;28;25120;-75
2024/03/28 06:00:30;;;;;;;3.88;2.28;;;;;;;;;;4972366;28;25113;-74
2024/03/28 06:02:57;;;;;;;2.70;2.50;;;;;;;;;;4972161;28;25101;-75
2024/03/28 06:05:23;;;;;;;3.10;2.05;;;;;;;;;;4972352;28;25082;-76
2024/03/28 06:07:49;;;;;;;2.30;2.10;;;;;;;;;;4964370;28;25074;-77
2024/03/28 06:10:15;;;;;;;2.25;2.10;;;;;;;;;;4975091;28;25084;-75
2024/03/28 06:12:41;;;;;;;3.53;1.90;;;;;;;;;;4970552;28;25085;-75
2024/03/28 06:15:08;;;;;;;3.08;1.80;;;;;;;;;;4968188;28;25079;-75
2024/03/28 06:17:37;;;;;;;2.40;2.20;;;;;;;;;;4966905;28;25055;-76
2024/03/28 06:20:05;;;;;;;2.58;2.10;;;;;;;;;;4972496;28;25109;-75
2024/03/28 06:22:31;;;;;;;2.67;2.42;;;;;;;;;;4974203;28;25061;-77
2024/03/28 06:24:57;;;;;;;3.50;2.30;;;;;;;;;;4979190;28;25060;-77
2024/03/28 06:27:23;;;;;;;3.03;2.15;;;;;;;;;;4978726;28;25139;-77
2024/03/28 06:29:49;;;;;;;3.35;2.20;;;;;;;;;;4974932;28;25104;-77
2024/03/28 06:32:24;;;;;;;2.72;2.35;;;;;;;;;;4974932;28;25136;-77
2024/03/28 06:34:54;;;;;;;2.17;2.03;;;;;;;;;;4967429;28;25070;-77
2024/03/28 06:37:21;;;;;;;2.70;2.50;;;;;;;;;;4968928;28;25059;-76
2024/03/28 06:39:47;;;;;;;3.15;2.40;;;;;;;;;;4978072;28;25092;-75
2024/03/28 06:42:13;;;;;;;5.35;2.45;;;;;;;;;;4971544;28;25081;-76
2024/03/28 06:44:43;;;;;;;2.97;2.50;;;;;;;;;;4967136;28;25082;-76
2024/03/28 06:47:09;;;;;;;3.08;2.20;;;;;;;;;;4979114;28;25078;-77
2024/03/28 06:49:35;;;;;;;3.92;2.45;;;;;;;;;;4991664;28;25074;-76
2024/03/28 06:52:01;;;;;;;2.47;2.20;;;;;;;;;;4974491;28;25142;-75
2024/03/28 06:54:27;;;;;;;3.95;2.47;;;;;;;;;;4989825;28;25093;-77
2024/03/28 06:56:54;;;;;;;4.28;2.25;;;;;;;;;;4982088;28;25124;-75
2024/03/28 06:59:20;;;;;;;3.30;2.40;;;;;;;;;;4968248;28;25107;-76
2024/03/28 07:01:45;;;;;;;3.42;2.25;;;;;;;;;;4980693;28;25079;-77
2024/03/28 07:04:11;;;;;;;2.83;2.55;;;;;;;;;;4980557;28;25088;-75
2024/03/28 07:06:37;;;;;;;3.15;2.17;;;;;;;;;;4980129;28;25069;-75
2024/03/28 07:09:04;;;;;;;4.70;2.50;;;;;;;;;;4969922;28;25081;-75
2024/03/28 07:11:30;;;;;;;2.70;2.30;;;;;;;;;;4969159;28;25099;-76
2024/03/28 07:13:56;;;;;;;5.30;3.10;;;;;;;;;;4972243;28;25114;-75
2024/03/28 07:16:22;;;;;;;2.53;2.00;;;;;;;;;;4969928;28;25073;-75
2024/03/28 07:18:48;;;;;;;2.08;1.90;;;;;;;;;;4967086;28;25086;-74
2024/03/28 07:21:14;;;;;;;1.98;1.77;;;;;;;;;;4972916;28;25094;-76
2024/03/28 07:23:43;;;;;;;1.75;1.67;;;;;;;;;;4964052;28;25065;-76
2024/03/28 07:26:09;;;;;;;3.30;2.13;;;;;;;;;;4975681;28;25193;-76
2024/03/28 07:28:35;;;;;;;1.95;1.80;;;;;;;;;;4977136;28;25064;-75
2024/03/28 07:31:01;;;;;;;2.80;2.70;;;;;;;;;;4969598;28;25071;-76
2024/03/28 07:33:27;;;;;;;3.85;3.65;;;;;;;;;;4972036;28;25123;-77
2024/03/28 07:35:53;;;;;;;4.53;4.22;;;;;;;;;;4977524;28;25068;-77
2024/03/28 07:38:19;;;;;;;5.35;4.95;;;;;;;;;;4968454;28;25128;-75
2024/03/28 07:40:48;;;;;;;5.95;5.57;;;;;;;;;;4971675;28;25075;-76
2024/03/28 07:43:14;;;;;;;7.22;6.63;;;;;;;;;;4970931;28;25064;-77
2024/03/28 07:45:41;;;;;;;6.82;6.43;;;;;;;;;;4973025;28;25115;-76
2024/03/28 07:48:08;;;;;;;7.00;6.50;;;;;;;;;;4973257;28;25075;-75
2024/03/28 07:50:34;;;;;;;5.97;5.68;;;;;;;;;;4975374;28;25089;-77
2024/03/28 07:53:00;;;;;;;10.93;6.28;;;;;;;;;;4976878;28;25078;-76
2024/03/28 07:55:26;;;;;;;5.55;5.25;;;;;;;;;;4973209;28;25085;-76
2024/03/28 07:57:53;;;;;;;6.57;6.18;;;;;;;;;;4968283;28;25129;-77
2024/03/28 08:00:21;;;;;;;5.40;5.03;;;;;;;;;;4969148;28;25163;-75
2024/03/28 08:02:48;;;;;;;6.85;6.40;;;;;;;;;;4969475;28;25058;-75
2024/03/28 08:05:15;;;;;;;7.78;7.38;;;;;;;;;;4972801;28;25079;-74
2024/03/28 08:07:41;;;;;;;8.32;7.72;;;;;;;;;;4982574;28;25136;-77
2024/03/28 08:10:09;;;;;;;7.93;7.35;;;;;;;;;;4971361;28;25103;-76
2024/03/28 08:12:35;;;;;;;5.25;4.95;;;;;;;;;;4959706;28;25095;-76
2024/03/28 08:15:02;;;;;;;6.05;5.25;;;;;;;;;;4969810;28;25067;-76
2024/03/28 08:17:28;;;;;;;5.00;4.60;;;;;;;;;;4970967;28;25073;-76
2024/03/28 08:19:54;;;;;;;5.60;5.20;;;;;;;;;;4969187;28;25097;-76
2024/03/28 08:22:21;;;;;;;5.72;5.20;;;;;;;;;;4969493;28;25082;-76
2024/03/28 08:24:47;;;;;;;6.15;5.57;;;;;;;;;;4968250;28;25150;-77
2024/03/28 08:27:14;;;;;;;6.35;5.88;;;;;;;;;;4970752;28;25057;-78
2024/03/28 08:29:40;;;;;;;6.93;6.40;;;;;;;;;;4970812;28;25055;-77
2024/03/28 08:32:06;;;;;;;6.60;6.10;;;;;;;;;;4967608;28;25080;-76
2024/03/28 08:34:32;;;;;;;5.38;4.82;;;;;;;;;;4962944;28;25122;-76
2024/03/28 08:36:58;;;;;;;6.50;5.75;;;;;;;;;;4960411;28;25062;-77
2024/03/28 08:39:24;;;;;;;7.57;5.75;;;;;;;;;;4966487;28;25098;-76
2024/03/28 08:41:52;;;;;;;6.03;5.53;;;;;;;;;;4966718;28;25087;-76
2024/03/28 08:44:19;;;;;;;6.15;5.55;;;;;;;;;;4991397;28;25083;-76
2024/03/28 08:46:45;;;;;;;6.25;5.60;;;;;;;;;;4986675;28;25088;-76
2024/03/28 08:49:11;;;;;;;6.35;5.75;;;;;;;;;;4989258;28;25074;-77
2024/03/28 08:51:37;;;;;;;8.30;5.80;;;;;;;;;;4988665;28;25054;-76
2024/03/28 08:54:05;;;;;;;6.57;5.95;;;;;;;;;;4990596;28;25064;-76
2024/03/28 08:56:32;;;;;;;6.80;6.00;;;;;;;;;;4968382;28;25061;-77
2024/03/28 08:58:58;;;;;;;7.00;6.30;;;;;;;;;;4983041;28;25059;-75
2024/03/28 09:01:25;;;;;;;6.07;5.57;;;;;;;;;;4983162;28;25103;-77
2024/03/28 09:03:54;;;;;;;7.45;6.75;;;;;;;;;;4989541;28;25079;-77
2024/03/28 09:06:20;;;;;;;7.25;6.55;;;;;;;;;;4982999;28;25129;-74
2024/03/28 09:08:46;;;;;;;7.85;7.13;;;;;;;;;;4985503;28;25119;-76
2024/03/28 09:11:12;;;;;;;9.75;7.60;;;;;;;;;;4973899;28;25111;-76
2024/03/28 09:13:39;;;;;;;10.10;8.00;;;;;;;;;;4966531;28;25099;-77
2024/03/28 09:16:06;;;;;;;7.93;6.95;;;;;;;;;;4968921;28;25064;-76
2024/03/28 09:18:33;;;;;;;8.40;7.70;;;;;;;;;;4962277;28;25062;-77
2024/03/28 09:21:08;;;;;;;11.02;9.05;;;;;;;;;;4965734;28;25109;-76
2024/03/28 09:23:36;;;;;;;8.95;8.07;;;;;;;;;;4970503;28;25100;-77
2024/03/28 09:26:02;;;;;;;8.05;7.30;;;;;;;;;;4968286;28;25130;-75
2024/03/28 09:28:29;;;;;;;8.38;7.43;;;;;;;;;;4969391;28;25160;-76
2024/03/28 09:30:55;;;;;;;9.27;7.15;;;;;;;;;;4969749;28;25139;-75
2024/03/28 09:33:21;;;;;;;8.27;7.57;;;;;;;;;;4963084;28;25070;-74
2024/03/28 09:35:47;;;;;;;11.40;7.70;;;;;;;;;;4966395;28;25070;-75
2024/03/28 09:38:13;;;;;;;7.40;5.53;;;;;;;;;;4962354;28;25071;-75
2024/03/28 09:40:44;;;;;;;7.43;5.88;;;;;;;;;;4963768;28;25072;-76
2024/03/28 09:43:10;;;;;;;6.88;6.28;;;;;;;;;;4969099;28;25070;-76
2024/03/28 09:45:36;;;;;;;5.28;4.78;;;;;;;;;;4969404;28;25069;-75
2024/03/28 09:48:02;;;;;;;6.57;5.95;;;;;;;;;;4968489;28;25098;-75
2024/03/28 09:50:29;;;;;;;7.43;5.78;;;;;;;;;;4970034;28;25057;-75
2024/03/28 09:52:58;;;;;;;6.95;6.30;;;;;;;;;;4969427;28;25158;-75
2024/03/28 09:55:25;;;;;;;7.00;6.35;;;;;;;;;;4965651;28;25070;-76
2024/03/28 09:57:51;;;;;;;11.05;6.75;;;;;;;;;;4968379;28;25090;-75
2024/03/28 10:00:18;;;;;;;7.78;6.25;;;;;;;;;;4965390;28;25078;-75
2024/03/28 10:02:51;;;;;;;6.78;5.93;;;;;;;;;;4959409;28;25107;-75
2024/03/28 10:05:17;;;;;;;15.30;7.07;;;;;;;;;;4966590;28;25066;-76
2024/03/28 10:07:44;;;;;;;9.00;6.38;;;;;;;;;;4967410;28;25079;-73
2024/03/28 10:10:13;;;;;;;9.90;6.90;;;;;;;;;;4969866;28;25054;-77
2024/03/28 10:12:39;;;;;;;15.15;6.07;;;;;;;;;;4970012;28;25132;-75
2024/03/28 10:15:07;;;;;;;9.68;5.80;;;;;;;;;;4967690;28;25079;-76
2024/03/28 10:17:34;;;;;;;17.70;6.47;;;;;;;;;;4974935;28;25103;-76
2024/03/28 10:20:01;;;;;;;13.43;6.05;;;;;;;;;;4974327;28;25143;-75
2024/03/28 10:22:29;;;;;;;12.88;5.38;;;;;;;;;;4963975;28;25079;-76
2024/03/28 10:24:56;;;;;;;10.63;4.93;;;;;;;;;;4974880;28;25051;-74
2024/03/28 10:27:22;;;;;;;10.10;4.45;;;;;;;;;;4965553;28;25064;-74
2024/03/28 10:29:55;;;;;;;15.30;4.35;;;;;;;;;;4972244;28;25068;-74
2024/03/28 10:32:25;;;;;;;6.82;3.60;;;;;;;;;;4963905;28;25055;-75
2024/03/28 10:34:52;;;;;;;11.02;4.03;;;;;;;;;;4970783;28;25098;-73
2024/03/28 10:37:22;;;;;;;9.13;4.22;;;;;;;;;;4962524;28;25068;-75
2024/03/28 10:39:49;;;;;;;11.30;3.95;;;;;;;;;;4970842;28;25050;-74
2024/03/28 10:42:15;;;;;;;11.07;4.22;;;;;;;;;;4970854;28;25067;-75
2024/03/28 10:44:45;;;;;;;12.88;3.85;;;;;;;;;;4970860;28;25069;-75
2024/03/28 10:47:18;;;;;;;7.80;3.95;;;;;;;;;;4974040;28;25064;-77
2024/03/28 10:49:51;;;;;;;8.27;3.42;;;;;;;;;;4978044;28;25065;-74
2024/03/28 10:52:32;;;;;;;12.02;4.07;;;;;;;;;;4970754;28;25066;-73
2024/03/28 10:55:08;;;;;;;11.60;3.60;;;;;;;;;;4973379;28;25077;-73
2024/03/28 10:57:34;;;;;;;10.80;3.70;;;;;;;;;;4970805;28;25062;-74
2024/03/28 11:00:00;;;;;;;13.52;3.88;;;;;;;;;;4967599;28;25061;-76
2024/03/28 11:02:28;;;;;;;10.27;3.47;;;;;;;;;;4972880;28;25110;-74
2024/03/28 11:04:54;;;;;;;9.00;3.80;;;;;;;;;;4968148;28;25071;-73
2024/03/28 11:07:25;;;;;;;10.20;3.78;;;;;;;;;;4973870;28;25156;-74
2024/03/28 11:09:58;;;;;;;10.30;3.40;;;;;;;;;;4973364;28;25156;-76
2024/03/28 11:12:25;;;;;;;11.20;2.88;;;;;;;;;;4969976;28;25089;-77
2024/03/28 11:15:04;;;;;;;11.43;2.83;;;;;;;;;;4969988;28;25120;-75
2024/03/28 11:17:30;;;;;;;10.80;2.83;;;;;;;;;;4971043;28;25091;-74
2024/03/28 11:20:09;;;;;;;6.85;3.30;;;;;;;;;;4974385;28;25102;-76
2024/03/28 11:22:38;;;;;;;5.78;2.30;;;;;;;;;;4971290;28;25076;-76
2024/03/28 11:25:24;;;;;;;11.52;2.78;;;;;;;;;;4976500;28;25083;-74
2024/03/28 11:28:01;;;;;;;5.60;3.20;;;;;;;;;;4982783;28;25074;-76
2024/03/28 11:30:27;;;;;;;6.25;2.38;;;;;;;;;;4972379;28;25081;-75
2024/03/28 11:33:03;;;;;;;8.02;2.75;;;;;;;;;;4978637;28;25068;-76
2024/03/28 11:35:29;;;;;;;5.35;2.35;;;;;;;;;;4973002;28;25471;-75
2024/03/28 11:38:05;;;;;;;4.43;2.13;;;;;;;;;;4971395;28;25073;-74
2024/03/28 11:40:31;;;;;;;4.03;2.75;;;;;;;;;;4964669;28;25089;-76
2024/03/28 11:43:14;;;;;;;5.78;2.58;;;;;;;;;;4976302;28;25062;-77
2024/03/28 11:45:55;;;;;;;5.18;2.83;;;;;;;;;;4976575;28;25148;-78
2024/03/28 11:48:22;;;;;;;9.18;3.55;;;;;;;;;;4971810;28;25075;-74
2024/03/28 11:50:49;;;;;;;7.03;3.28;;;;;;;;;;4968161;28;25069;-76
2024/03/28 11:53:15;;;;;;;7.13;3.50;;;;;;;;;;4967290;28;25161;-74
2024/03/28 11:55:51;;;;;;;4.57;1.98;;;;;;;;;;4962456;28;25077;-76
2024/03/28 11:58:20;;;;;;;5.28;1.20;;;;;;;;;;4965560;28;25064;-76
2024/03/28 12:00:47;;;;;;;2.20;1.02;;;;;;;;;;4964528;28;25105;-74
2024/03/28 12:03:13;;;;;;;3.72;0.85;;;;;;;;;;4974391;28;25143;-73
2024/03/28 12:05:40;;;;;;;3.95;1.50;;;;;;;;;;4966059;28;25150;-76
2024/03/28 12:08:07;;;;;;;2.55;1.17;;;;;;;;;;4970425;28;25079;-73
2024/03/28 12:10:33;;;;;;;3.97;1.25;;;;;;;;;;4974675;28;25069;-76
2024/03/28 12:13:03;;;;;;;1.38;0.80;;;;;;;;;;4971744;28;25056;-78
2024/03/28 12:15:30;;;;;;;2.75;0.95;;;;;;;;;;4968177;28;25073;-77
2024/03/28 12:17:56;;;;;;;7.00;1.23;;;;;;;;;;4983500;28;25076;-74
2024/03/28 12:20:23;;;;;;;1.52;0.90;;;;;;;;;;4978565;28;25082;-76
2024/03/28 12:22:54;;;;;;;2.35;0.73;;;;;;;;;;4990296;28;25083;-76
2024/03/28 12:25:20;;;;;;;2.70;1.00;;;;;;;;;;4966144;28;25048;-77
2024/03/28 12:27:55;;;;;;;2.65;0.93;;;;;;;;;;4970300;28;25063;-74
2024/03/28 12:30:21;;;;;;;1.80;0.75;;;;;;;;;;4970892;28;25126;-77
2024/03/28 12:32:47;;;;;;;2.17;0.88;;;;;;;;;;4963463;28;25141;-77
2024/03/28 12:35:13;;;;;;;0.93;0.70;;;;;;;;;;4977410;28;25067;-75
2024/03/28 12:37:41;;;;;;;4.22;0.63;;;;;;;;;;4969349;28;25085;-77
2024/03/28 12:40:16;;;;;;;3.22;0.70;;;;;;;;;;4969351;28;25058;-75
2024/03/28 12:42:45;;;;;;;2.50;0.50;;;;;;;;;;4982236;28;25058;-76
2024/03/28 12:45:11;;;;;;;1.83;0.93;;;;;;;;;;4985692;28;25075;-77
2024/03/28 12:47:37;;;;;;;2.00;0.68;;;;;;;;;;4984861;28;25071;-76
2024/03/28 12:50:04;;;;;;;1.33;0.47;;;;;;;;;;4971606;28;25065;-76
2024/03/28 12:52:30;;;;;;;2.58;0.70;;;;;;;;;;4983836;28;25150;-76
2024/03/28 12:54:57;;;;;;;3.30;0.50;;;;;;;;;;4974957;28;25057;-76
2024/03/28 12:57:22;;;;;;;1.08;0.57;;;;;;;;;;4974608;28;25092;-75
2024/03/28 12:59:48;;;;;;;0.77;0.77;;;;;;;;;;4976795;28;25133;-73
2024/03/28 13:02:14;;;;;;;2.42;1.00;;;;;;;;;;4970524;28;25078;-75
2024/03/28 13:04:40;;;;;;;0.80;0.80;;;;;;;;;;4962876;28;25068;-73
2024/03/28 13:07:11;;;;;;;3.58;1.00;;;;;;;;;;4963865;28;25088;-75
2024/03/28 13:09:37;;;;;;;0.80;0.80;;;;;;;;;;4965327;28;25070;-75
2024/03/28 13:12:04;;;;;;;2.40;0.70;;;;;;;;;;4968781;28;25077;-75
2024/03/28 13:14:31;;;;;;;0.73;0.60;;;;;;;;;;4972829;28;25074;-75
2024/03/28 13:16:57;;;;;;;0.95;0.63;;;;;;;;;;4982830;28;25061;-75
2024/03/28 13:19:24;;;;;;;1.60;0.73;;;;;;;;;;4976424;28;25061;-78
2024/03/28 13:21:51;;;;;;;1.90;0.82;;;;;;;;;;4967635;28;25130;-77
2024/03/28 13:24:17;;;;;;;1.75;0.77;;;;;;;;;;4962641;28;25130;-76
2024/03/28 13:26:43;;;;;;;2.38;0.70;;;;;;;;;;4971982;28;25071;-75
2024/03/28 13:29:09;;;;;;;2.20;0.98;;;;;;;;;;4962050;28;25069;-77
2024/03/28 13:31:35;;;;;;;2.85;0.70;;;;;;;;;;4962353;28;25062;-79
2024/03/28 13:34:01;;;;;;;1.08;0.40;;;;;;;;;;4961303;28;25075;-73
2024/03/28 13:36:28;;;;;;;1.42;0.57;;;;;;;;;;4962622;28;25065;-76
2024/03/28 13:38:54;;;;;;;1.13;0.70;;;;;;;;;;4967058;28;25047;-77
2024/03/28 13:41:20;;;;;;;2.25;0.93;;;;;;;;;;4969026;28;25076;-77
2024/03/28 13:43:46;;;;;;;1.05;0.85;;;;;;;;;;4973625;28;25068;-73
2024/03/28 13:46:12;;;;;;;1.55;0.60;;;;;;;;;;4966677;28;25380;-75
2024/03/28 13:48:38;;;;;;;2.38;0.90;;;;;;;;;;4961823;28;25067;-75
2024/03/28 13:51:04;;;;;;;7.20;1.23;;;;;;;;;;4967618;28;25063;-75
2024/03/28 13:53:31;;;;;;;2.08;0.75;;;;;;;;;;4963547;28;25067;-76
2024/03/28 13:55:57;;;;;;;4.78;0.90;;;;;;;;;;4969489;28;25065;-76
2024/03/28 13:58:23;;;;;;;2.70;0.70;;;;;;;;;;4968027;28;25124;-74
2024/03/28 14:00:49;;;;;;;1.67;0.75;;;;;;;;;;4971196;28;25073;-77
2024/03/28 14:03:16;;;;;;;3.47;0.77;;;;;;;;;;4967900;28;25074;-76
2024/03/28 14:05:42;;;;;;;2.30;0.88;;;;;;;;;;4968810;28;25095;-72
2024/03/28 14:08:09;;;;;;;3.53;1.27;;;;;;;;;;4968886;28;25057;-77
2024/03/28 14:10:38;;;;;;;2.65;0.80;;;;;;;;;;4967912;28;25058;-75
2024/03/28 14:13:05;;;;;;;2.63;0.68;;;;;;;;;;4970134;28;25099;-74
2024/03/28 14:15:35;;;;;;;5.90;0.77;;;;;;;;;;4956726;28;25054;-75
2024/03/28 14:18:06;;;;;;;5.50;1.02;;;;;;;;;;4960206;28;25117;-74
2024/03/28 14:20:32;;;;;;;4.45;0.90;;;;;;;;;;4981710;28;25128;-73
2024/03/28 14:22:58;;;;;;;6.13;0.90;;;;;;;;;;4960962;28;25090;-75
2024/03/28 14:25:24;;;;;;;5.60;0.95;;;;;;;;;;4965284;28;25159;-72
2024/03/28 14:27:50;;;;;;;2.85;0.80;;;;;;;;;;4952592;28;25067;-77
2024/03/28 14:30:16;;;;;;;2.05;1.05;;;;;;;;;;4957553;28;25148;-76
2024/03/28 14:32:42;;;;;;;2.47;0.80;;;;;;;;;;4957383;28;25096;-75
2024/03/28 14:35:08;;;;;;;4.57;0.90;;;;;;;;;;4969254;28;25078;-75
2024/03/28 14:37:34;;;;;;;4.82;0.80;;;;;;;;;;4978174;28;25094;-73
2024/03/28 14:40:01;;;;;;;7.72;1.33;;;;;;;;;;4975602;28;25069;-75
2024/03/28 14:42:29;;;;;;;3.92;1.05;;;;;;;;;;4976195;28;25055;-75
2024/03/28 14:44:56;;;;;;;5.00;0.88;;;;;;;;;;4974343;28;25069;-72
2024/03/28 14:47:22;;;;;;;6.05;1.02;;;;;;;;;;4969269;28;25136;-76
2024/03/28 14:49:51;;;;;;;5.00;0.93;;;;;;;;;;4982756;28;25052;-74